Time;durP1;ratioP1;P1;durP2;ratioP2;P2;SDS_P1;SDS_P2;PMS_P1;PMS_P2;Temp;Humidity;BMP_temperature;BMP_pressure;BME280_temperature;BME280_humidity;BME280_pressure;Samples;Min_cycle;Max_cycle;Signal;HPM_P1;HPM_P2
2021/01/24 00:01:02;;;;;;;;;;;;;;;5.38;87.93;99490.77;1746020;81;20226;-69
2021/01/24 00:03:31;;;;;;;;;;;;;;;5.39;87.93;99486.72;1739868;82;21206;-68
2021/01/24 00:05:58;;;;;;;;;;;;;;;5.41;87.95;99486.63;1739952;82;20230;-69
2021/01/24 00:08:26;;;;;;;;;;;;;;;5.42;87.95;99489.14;1740071;82;21903;-68
2021/01/24 00:10:53;;;;;;;;;;;;;;;5.45;87.98;99488.07;1740025;82;20408;-68
2021/01/24 00:13:20;;;;;;;;;;;;;;;5.46;87.97;99480.09;1740041;82;20219;-68
2021/01/24 00:15:48;;;;;;;;;;;;;;;5.49;87.99;99479.51;1764213;79;21421;-69
2021/01/24 00:18:15;;;;;;;;;;;;;;;5.52;87.99;99478.00;1769219;81;20236;-68
2021/01/24 00:20:43;;;;;;;;;;;;;;;5.51;87.99;99478.47;1763371;81;21848;-68
2021/01/24 00:23:10;;;;;;;;;;;;;;;5.53;87.97;99464.78;1768610;81;20392;-69
2021/01/24 00:25:38;;;;;;;;;;;;;;;5.54;87.96;99463.00;1768647;81;20291;-68
2021/01/24 00:28:05;;;;;;;;;;;;;;;5.56;87.93;99462.41;1768571;81;20359;-68
2021/01/24 00:30:32;;;;;;;;;;;;;;;5.56;87.89;99458.48;1762957;81;20210;-68
2021/01/24 00:33:00;;;;;;;;;;;;;;;5.57;87.87;99454.91;1740060;82;22096;-69
2021/01/24 00:35:29;;;;;;;;;;;;;;;5.57;87.86;99451.81;1740997;81;20332;-68
2021/01/24 00:37:57;;;;;;;;;;;;;;;5.56;87.80;99446.69;1740033;82;20226;-69
2021/01/24 00:40:25;;;;;;;;;;;;;;;5.56;87.76;99446.21;1739998;82;20432;-69
2021/01/24 00:42:52;;;;;;;;;;;;;;;5.58;87.74;99443.48;1740060;82;20235;-70
2021/01/24 00:45:20;;;;;;;;;;;;;;;5.57;87.67;99437.41;1740246;81;22082;-69
2021/01/24 00:47:47;;;;;;;;;;;;;;;5.56;87.64;99440.14;1740027;82;21276;-69
2021/01/24 00:50:16;;;;;;;;;;;;;;;5.56;87.61;99434.91;1740899;81;20239;-70
2021/01/24 00:52:43;;;;;;;;;;;;;;;5.55;87.58;99430.61;1739936;81;20280;-69
2021/01/24 00:55:11;;;;;;;;;;;;;;;5.55;87.56;99435.86;1740019;82;20248;-69
2021/01/24 00:57:39;;;;;;;;;;;;;;;5.54;87.53;99440.26;1740044;82;21919;-70
2021/01/24 01:00:07;;;;;;;;;;;;;;;5.54;87.50;99433.71;1740069;82;22541;-70
2021/01/24 01:02:36;;;;;;;;;;;;;;;5.54;87.49;99425.85;1765239;81;20212;-70
2021/01/24 01:05:06;;;;;;;;;;;;;;;5.55;87.51;99432.76;1744978;81;20317;-70
2021/01/24 01:07:34;;;;;;;;;;;;;;;5.56;87.50;99427.88;1764870;81;20226;-68
2021/01/24 01:10:04;;;;;;;;;;;;;;;5.57;87.48;99426.09;1715412;82;21924;-68
2021/01/24 01:12:32;;;;;;;;;;;;;;;5.58;87.49;99422.52;1740158;82;20239;-68
2021/01/24 01:14:59;;;;;;;;;;;;;;;5.59;87.54;99412.40;1741419;79;20146;-68
2021/01/24 01:17:26;;;;;;;;;;;;;;;5.61;87.56;99415.77;1740195;82;20517;-68
2021/01/24 01:19:55;;;;;;;;;;;;;;;5.61;87.58;99405.29;1740331;82;20253;-68
2021/01/24 01:22:22;;;;;;;;;;;;;;;5.62;87.62;99412.20;1740321;81;22039;-68
2021/01/24 01:24:50;;;;;;;;;;;;;;;5.64;87.66;99412.44;1748627;81;20507;-68
2021/01/24 01:27:18;;;;;;;;;;;;;;;5.64;87.68;99414.22;1744870;81;20267;-68
2021/01/24 01:29:45;;;;;;;;;;;;;;;5.64;87.70;99416.84;1770424;81;20492;-68
2021/01/24 01:32:13;;;;;;;;;;;;;;;5.64;87.72;99421.60;1753560;81;20212;-69
2021/01/24 01:34:40;;;;;;;;;;;;;;;5.63;87.76;99423.03;1770638;81;21911;-69
2021/01/24 01:37:08;;;;;;;;;;;;;;;5.63;87.77;99428.27;1754286;81;20397;-69
2021/01/24 01:39:37;;;;;;;;;;;;;;;5.61;87.81;99432.32;1740156;82;20215;-68
2021/01/24 01:42:14;;;;;;;;;;;;;;;5.61;87.82;99432.80;1742915;79;22708;-68
2021/01/24 01:44:42;;;;;;;;;;;;;;;5.59;87.86;99427.64;1740071;81;20222;-69
2021/01/24 01:47:10;;;;;;;;;;;;;;;5.57;87.92;99428.23;1738522;82;22086;-68
2021/01/24 01:49:38;;;;;;;;;;;;;;;5.57;87.93;99431.33;1738491;82;20383;-69
2021/01/24 01:52:06;;;;;;;;;;;;;;;5.56;87.95;99430.97;1738609;82;20231;-69
2021/01/24 01:54:33;;;;;;;;;;;;;;;5.54;88.00;99429.78;1747880;81;20514;-68
2021/01/24 01:57:00;;;;;;;;;;;;;;;5.53;88.01;99431.21;1770689;81;20219;-68
2021/01/24 01:59:27;;;;;;;;;;;;;;;5.50;88.05;99427.05;1769572;81;21970;-68
2021/01/24 02:02:15;;;;;;;;;;;;;;;5.48;88.06;99430.70;1765254;80;20285;-68
2021/01/24 02:04:50;;;;;;;;;;;;;;;5.45;88.10;99427.36;1759876;81;20777;-68
2021/01/24 02:07:33;;;;;;;;;;;;;;;5.45;88.13;99419.98;1740218;82;20529;-69
2021/01/24 02:10:21;;;;;;;;;;;;;;;5.44;88.13;99423.55;1682693;82;20226;-68
2021/01/24 02:13:04;;;;;;;;;;;;;;;5.43;88.16;99427.12;1741692;79;23105;-68
2021/01/24 02:15:32;;;;;;;;;;;;;;;5.42;88.20;99428.91;1741730;81;20420;-68
2021/01/24 02:18:02;;;;;;;;;;;;;;;5.41;88.21;99429.86;1740320;81;20211;-68
2021/01/24 02:20:36;;;;;;;;;;;;;;;5.40;88.23;99425.57;1724528;81;20321;-68
2021/01/24 02:23:03;;;;;;;;;;;;;;;5.40;88.25;99429.50;1747500;81;20235;-68
2021/01/24 02:25:43;;;;;;;;;;;;;;;5.40;88.29;99423.39;1740266;81;22036;-68
2021/01/24 02:28:32;;;;;;;;;;;;;;;5.38;88.33;99430.06;1770229;81;20433;-68
2021/01/24 02:31:00;;;;;;;;;;;;;;;5.38;88.34;99429.22;1770637;81;20765;-69
2021/01/24 02:33:28;;;;;;;;;;;;;;;5.37;88.36;99425.77;1769543;81;20412;-69
2021/01/24 02:35:58;;;;;;;;;;;;;;;5.38;88.42;99423.98;1745159;81;20494;-69
2021/01/24 02:38:26;;;;;;;;;;;;;;;5.39;88.44;99422.56;1747151;81;22076;-68
2021/01/24 02:40:54;;;;;;;;;;;;;;;5.40;88.47;99422.09;1740162;82;20485;-69
2021/01/24 02:43:22;;;;;;;;;;;;;;;5.41;88.52;99420.69;1766903;81;20211;-68
2021/01/24 02:45:50;;;;;;;;;;;;;;;5.43;88.52;99421.88;1743854;81;20512;-69
2021/01/24 02:48:18;;;;;;;;;;;;;;;5.43;88.56;99429.27;1768007;81;20247;-68
2021/01/24 02:50:46;;;;;;;;;;;;;;;5.45;88.57;99426.53;1741521;81;22136;-69
2021/01/24 02:53:14;;;;;;;;;;;;;;;5.48;88.62;99425.45;1760819;81;20229;-68
2021/01/24 02:55:42;;;;;;;;;;;;;;;5.49;88.62;99421.89;1760248;81;20241;-69
2021/01/24 02:58:10;;;;;;;;;;;;;;;5.50;88.66;99411.77;1760790;81;21302;-68
2021/01/24 03:00:37;;;;;;;;;;;;;;;5.53;88.66;99418.95;1760914;81;20220;-68
2021/01/24 03:03:05;;;;;;;;;;;;;;;5.57;88.71;99409.06;1760877;81;22076;-67
2021/01/24 03:05:33;;;;;;;;;;;;;;;5.59;88.72;99409.78;1733546;81;20235;-68
2021/01/24 03:08:01;;;;;;;;;;;;;;;5.60;88.70;99413.63;1739153;81;20500;-70
2021/01/24 03:10:29;;;;;;;;;;;;;;;5.60;88.70;99416.25;1722742;82;20390;-68
2021/01/24 03:13:09;;;;;;;;;;;;;;;5.61;88.68;99416.60;1745106;81;20342;-68
2021/01/24 03:15:36;;;;;;;;;;;;;;;5.62;88.66;99413.03;1714858;83;24471;-68
2021/01/24 03:18:04;;;;;;;;;;;;;;;5.65;88.66;99408.86;1731726;81;20451;-69
2021/01/24 03:20:36;;;;;;;;;;;;;;;5.68;88.67;99408.63;1736707;81;20219;-68
2021/01/24 03:23:03;;;;;;;;;;;;;;;5.70;88.64;99402.82;1708159;83;20468;-67
2021/01/24 03:25:31;;;;;;;;;;;;;;;5.71;88.63;99394.48;1751825;81;20523;-67
2021/01/24 03:27:59;;;;;;;;;;;;;;;5.74;88.60;99390.31;1757494;81;21960;-67
2021/01/24 03:30:26;;;;;;;;;;;;;;;5.75;88.57;99382.81;1757565;81;20220;-67
2021/01/24 03:32:54;;;;;;;;;;;;;;;5.75;88.54;99387.58;1734845;81;20223;-67
2021/01/24 03:35:21;;;;;;;;;;;;;;;5.79;88.50;99382.09;1731075;81;20383;-67
2021/01/24 03:37:49;;;;;;;;;;;;;;;5.79;88.45;99384.27;1756590;81;20461;-68
2021/01/24 03:40:16;;;;;;;;;;;;;;;5.81;88.43;99384.14;1742628;81;22071;-68
2021/01/24 03:42:43;;;;;;;;;;;;;;;5.82;88.36;99387.12;1759167;81;21020;-67
2021/01/24 03:45:13;;;;;;;;;;;;;;;5.85;88.33;99381.64;1754983;81;20292;-67
2021/01/24 03:47:40;;;;;;;;;;;;;;;5.86;88.27;99382.83;1735844;81;20539;-68
2021/01/24 03:50:10;;;;;;;;;;;;;;;5.87;88.21;99379.73;1730811;81;20251;-68
2021/01/24 03:52:38;;;;;;;;;;;;;;;5.90;88.17;99391.31;1746771;81;21901;-67
2021/01/24 03:55:06;;;;;;;;;;;;;;;5.89;88.11;99377.86;1767838;81;20348;-67
2021/01/24 03:57:34;;;;;;;;;;;;;;;5.90;88.04;99371.66;1762010;81;20486;-67
2021/01/24 04:00:04;;;;;;;;;;;;;;;5.91;87.98;99373.36;1766414;81;20466;-68
2021/01/24 04:02:33;;;;;;;;;;;;;;;5.91;87.91;99375.98;1768573;81;20216;-68
2021/01/24 04:05:01;;;;;;;;;;;;;;;5.92;87.84;99369.78;1763146;81;22599;-67
2021/01/24 04:07:30;;;;;;;;;;;;;;;5.93;87.79;99372.76;1739921;81;20457;-67
2021/01/24 04:09:57;;;;;;;;;;;;;;;5.94;87.75;99373.95;1736551;81;20224;-68
2021/01/24 04:12:24;;;;;;;;;;;;;;;5.95;87.69;99362.98;1742777;81;21254;-67
2021/01/24 04:14:52;;;;;;;;;;;;;;;5.97;87.65;99372.39;1742220;81;20263;-68
2021/01/24 04:17:19;;;;;;;;;;;;;;;5.98;87.57;99369.30;1751207;81;22089;-67
2021/01/24 04:19:47;;;;;;;;;;;;;;;5.97;87.52;99368.45;1762027;81;20231;-68
2021/01/24 04:22:14;;;;;;;;;;;;;;;5.99;87.47;99364.44;1770015;81;20215;-68
2021/01/24 04:24:42;;;;;;;;;;;;;;;6.00;87.40;99367.41;1752274;81;20317;-67
2021/01/24 04:27:10;;;;;;;;;;;;;;;6.03;87.35;99368.48;1739643;81;20532;-67
2021/01/24 04:29:37;;;;;;;;;;;;;;;6.01;87.29;99368.61;1750556;81;21862;-67
2021/01/24 04:32:05;;;;;;;;;;;;;;;6.00;87.21;99359.55;1766537;81;20490;-68
2021/01/24 04:34:33;;;;;;;;;;;;;;;5.99;87.13;99366.58;1767251;81;20224;-68
2021/01/24 04:37:00;;;;;;;;;;;;;;;5.98;87.05;99368.84;1748281;81;20471;-67
2021/01/24 04:39:27;;;;;;;;;;;;;;;5.98;86.98;99362.74;1742190;81;20214;-68
2021/01/24 04:41:54;;;;;;;;;;;;;;;5.98;86.91;99369.30;1760776;81;22054;-67
2021/01/24 04:44:22;;;;;;;;;;;;;;;5.99;86.86;99370.99;1770104;81;20216;-68
2021/01/24 04:46:50;;;;;;;;;;;;;;;5.99;86.80;99374.92;1769911;81;20236;-68
2021/01/24 04:49:19;;;;;;;;;;;;;;;5.98;86.70;99376.71;1745598;81;20592;-68
2021/01/24 04:51:46;;;;;;;;;;;;;;;5.98;86.63;99367.53;1731879;81;20286;-67
2021/01/24 04:54:13;;;;;;;;;;;;;;;5.99;86.58;99372.30;1739699;82;21904;-67
2021/01/24 04:56:41;;;;;;;;;;;;;;;5.99;86.48;99373.14;1769245;81;20397;-68
2021/01/24 04:59:08;;;;;;;;;;;;;;;6.00;86.40;99373.97;1747805;81;20242;-67
2021/01/24 05:01:36;;;;;;;;;;;;;;;5.99;86.32;99369.68;1745426;81;20312;-68
2021/01/24 05:04:04;;;;;;;;;;;;;;;5.98;86.25;99373.22;1735006;81;20221;-67
2021/01/24 05:06:31;;;;;;;;;;;;;;;5.97;86.19;99374.18;1759034;81;21844;-68
2021/01/24 05:09:00;;;;;;;;;;;;;;;5.94;86.04;99368.70;1769821;81;20395;-68
2021/01/24 05:11:27;;;;;;;;;;;;;;;5.94;85.97;99371.80;1754779;81;20376;-68
2021/01/24 05:14:13;;;;;;;;;;;;;;;5.92;85.93;99371.09;1752096;81;21243;-67
2021/01/24 05:16:41;;;;;;;;;;;;;;;5.92;85.86;99369.78;1740034;81;20405;-67
2021/01/24 05:19:10;;;;;;;;;;;;;;;5.90;85.77;99369.91;1754728;80;21908;-67
2021/01/24 05:21:37;;;;;;;;;;;;;;;5.89;85.71;99368.68;1767762;81;21798;-67
2021/01/24 05:24:09;;;;;;;;;;;;;;;5.87;85.63;99367.47;1731057;81;20155;-68
2021/01/24 05:26:39;;;;;;;;;;;;;;;5.88;85.58;99378.78;1767661;80;21342;-67
2021/01/24 05:29:21;;;;;;;;;;;;;;;5.87;85.52;99374.02;1750232;81;20226;-68
2021/01/24 05:31:51;;;;;;;;;;;;;;;5.86;85.46;99372.83;1741407;81;22126;-68
2021/01/24 05:34:25;;;;;;;;;;;;;;;5.85;85.38;99374.61;1763344;81;21269;-68
2021/01/24 05:36:53;;;;;;;;;;;;;;;5.86;85.34;99374.97;1743371;81;20218;-68
2021/01/24 05:39:20;;;;;;;;;;;;;;;5.87;85.25;99378.42;1762197;81;21394;-67
2021/01/24 05:41:51;;;;;;;;;;;;;;;5.88;85.20;99370.44;1740788;81;20734;-68
2021/01/24 05:44:19;;;;;;;;;;;;;;;5.90;85.14;99366.42;1742994;81;22042;-68
2021/01/24 05:46:46;;;;;;;;;;;;;;;5.90;85.03;99379.52;1740762;81;20532;-68
2021/01/24 05:49:30;;;;;;;;;;;;;;;5.93;84.92;99385.86;1743241;81;20222;-68
2021/01/24 05:52:04;;;;;;;;;;;;;;;5.96;84.85;99377.75;1719890;82;20253;-68
2021/01/24 05:54:42;;;;;;;;;;;;;;;5.99;84.66;99383.63;1733618;81;20493;-68
2021/01/24 05:57:11;;;;;;;;;;;;;;;6.01;84.53;99386.12;1739826;81;23025;-69
2021/01/24 05:59:50;;;;;;;;;;;;;;;6.01;84.43;99380.40;1735670;81;20387;-68
2021/01/24 06:02:18;;;;;;;;;;;;;;;6.01;84.26;99371.70;1700646;84;20221;-68
2021/01/24 06:04:46;;;;;;;;;;;;;;;6.03;84.15;99373.72;1700022;84;20317;-68
2021/01/24 06:07:14;;;;;;;;;;;;;;;6.02;84.00;99376.83;1700065;84;20217;-68
2021/01/24 06:09:43;;;;;;;;;;;;;;;6.05;83.89;99369.67;1700733;84;21917;-68
2021/01/24 06:12:10;;;;;;;;;;;;;;;6.05;83.75;99367.88;1700378;84;20391;-68
2021/01/24 06:14:40;;;;;;;;;;;;;;;6.07;83.63;99376.45;1684123;84;20283;-68
2021/01/24 06:17:17;;;;;;;;;;;;;;;6.09;83.54;99377.20;1755918;81;20357;-68
2021/01/24 06:19:47;;;;;;;;;;;;;;;6.09;83.30;99372.44;1758087;81;20236;-68
2021/01/24 06:22:17;;;;;;;;;;;;;;;6.11;83.01;99372.66;1700460;84;21933;-68
2021/01/24 06:24:47;;;;;;;;;;;;;;;6.13;82.89;99378.62;1700688;84;21383;-68
2021/01/24 06:27:17;;;;;;;;;;;;;;;6.14;82.74;99372.90;1691521;84;20497;-68
2021/01/24 06:29:46;;;;;;;;;;;;;;;6.13;82.59;99371.23;1700396;84;20483;-68
2021/01/24 06:32:17;;;;;;;;;;;;;;;6.11;82.48;99363.48;1673587;84;20522;-68
2021/01/24 06:34:44;;;;;;;;;;;;;;;6.12;82.36;99375.64;1709864;83;21289;-68
2021/01/24 06:37:21;;;;;;;;;;;;;;;6.12;82.18;99375.64;1701638;83;20231;-68
2021/01/24 06:39:53;;;;;;;;;;;;;;;6.12;82.04;99369.09;1705118;83;20287;-68
2021/01/24 06:42:44;;;;;;;;;;;;;;;6.13;81.95;99373.38;1695303;83;20519;-69
2021/01/24 06:45:28;;;;;;;;;;;;;;;6.15;81.77;99358.35;1709072;83;20235;-68
2021/01/24 06:47:57;;;;;;;;;;;;;;;6.17;81.61;99366.92;1712658;83;21903;-68
2021/01/24 06:50:44;;;;;;;;;;;;;;;6.16;81.46;99361.33;1723734;83;20394;-67
2021/01/24 06:53:21;;;;;;;;;;;;;;;6.17;81.34;99375.27;1725148;83;20219;-67
2021/01/24 06:56:06;;;;;;;;;;;;;;;6.17;81.22;99367.41;1712387;83;20448;-68
2021/01/24 06:58:33;;;;;;;;;;;;;;;6.18;81.04;99369.94;1715185;83;20244;-68
2021/01/24 07:01:30;;;;;;;;;;;;;;;6.21;80.88;99367.06;1719591;83;22078;-68
2021/01/24 07:04:29;;;;;;;;;;;;;;;6.24;80.79;99368.61;1710121;83;20483;-70
2021/01/24 07:06:59;;;;;;;;;;;;;;;6.26;80.67;99368.01;1702959;83;20218;-70
2021/01/24 07:09:31;;;;;;;;;;;;;;;6.27;80.40;99370.54;1717009;83;20320;-70
2021/01/24 07:12:00;;;;;;;;;;;;;;;6.29;80.29;99366.00;1723315;83;20600;-72
2021/01/24 07:14:37;;;;;;;;;;;;;;;6.30;80.12;99354.55;1694025;84;21897;-71
2021/01/24 07:17:09;;;;;;;;;;;;;;;6.31;79.94;99361.47;1737935;82;20253;-69
2021/01/24 07:19:45;;;;;;;;;;;;;;;6.34;79.76;99358.23;1742042;82;20233;-68
2021/01/24 07:22:14;;;;;;;;;;;;;;;6.35;79.63;99369.08;1726798;82;20271;-68
2021/01/24 07:24:43;;;;;;;;;;;;;;;6.36;79.41;99352.39;1752883;82;20241;-69
2021/01/24 07:27:14;;;;;;;;;;;;;;;6.40;79.31;99353.36;1752533;82;22787;-69
2021/01/24 07:29:43;;;;;;;;;;;;;;;6.42;79.09;99361.94;1722894;83;20247;-68
2021/01/24 07:32:20;;;;;;;;;;;;;;;6.48;78.99;99365.88;1725355;82;20521;-69
2021/01/24 07:34:49;;;;;;;;;;;;;;;6.51;78.80;99366.94;1715318;82;20312;-69
2021/01/24 07:37:17;;;;;;;;;;;;;;;6.54;78.66;99361.44;1738671;82;20216;-66
2021/01/24 07:39:45;;;;;;;;;;;;;;;6.56;78.54;99349.03;1750007;82;22945;-66
2021/01/24 07:42:13;;;;;;;;;;;;;;;6.59;78.49;99360.62;1742874;82;20439;-68
2021/01/24 07:44:42;;;;;;;;;;;;;;;6.62;78.29;99354.28;1738281;81;20386;-68
2021/01/24 07:47:10;;;;;;;;;;;;;;;6.66;78.22;99356.56;1723148;82;20327;-67
2021/01/24 07:49:38;;;;;;;;;;;;;;;6.69;78.12;99354.16;1723345;82;20258;-66
2021/01/24 07:52:05;;;;;;;;;;;;;;;6.73;77.89;99359.03;1740284;81;24303;-69
2021/01/24 07:54:34;;;;;;;;;;;;;;;6.82;77.72;99350.91;1760458;81;20382;-69
2021/01/24 07:57:03;;;;;;;;;;;;;;;6.88;77.49;99355.19;1758185;81;20274;-72
2021/01/24 07:59:30;;;;;;;;;;;;;;;6.94;77.38;99360.41;1728355;81;20315;-68
2021/01/24 08:01:58;;;;;;;;;;;;;;;6.97;77.23;99355.41;1732982;81;20226;-68
2021/01/24 08:04:26;;;;;;;;;;;;;;;6.99;77.07;99355.64;1735477;80;22076;-68
2021/01/24 08:06:53;;;;;;;;;;;;;;;7.03;76.96;99353.11;1739859;80;21767;-68
2021/01/24 08:09:20;;;;;;;;;;;;;;;7.06;76.78;99354.67;1718773;81;20260;-69
2021/01/24 08:11:49;;;;;;;;;;;;;;;7.12;76.78;99351.53;1760472;81;22576;-69
2021/01/24 08:14:17;;;;;;;;;;;;;;;7.16;76.61;99349.03;1734799;81;20262;-69
2021/01/24 08:16:45;;;;;;;;;;;;;;;7.22;76.34;99343.73;1704301;83;21934;-68
2021/01/24 08:19:16;;;;;;;;;;;;;;;7.29;76.21;99347.53;1731089;81;20394;-68
2021/01/24 08:21:43;;;;;;;;;;;;;;;7.35;76.13;99347.88;1731473;81;20591;-68
2021/01/24 08:24:11;;;;;;;;;;;;;;;7.38;75.93;99350.23;1731132;83;20319;-68
2021/01/24 08:26:39;;;;;;;;;;;;;;;7.42;75.82;99351.64;1704672;83;39239;-69
2021/01/24 08:29:06;;;;;;;;;;;;;;;7.46;75.47;99348.30;1732656;81;22084;-69
2021/01/24 08:31:34;;;;;;;;;;;;;;;7.50;75.38;99344.44;1706230;83;20223;-69
2021/01/24 08:34:02;;;;;;;;;;;;;;;7.53;75.24;99343.34;1732269;83;20484;-72
2021/01/24 08:36:31;;;;;;;;;;;;;;;7.57;75.16;99335.58;1749662;81;20506;-70
2021/01/24 08:39:00;;;;;;;;;;;;;;;7.60;74.98;99330.88;1762445;81;20534;-71
2021/01/24 08:41:37;;;;;;;;;;;;;;;7.63;74.84;99316.68;1734982;81;22814;-69
2021/01/24 08:44:13;;;;;;;;;;;;;;;7.66;74.83;99308.53;1758341;81;20287;-69
2021/01/24 08:46:42;;;;;;;;;;;;;;;7.70;74.79;99316.49;1755140;81;20251;-68
2021/01/24 08:49:13;;;;;;;;;;;;;;;7.74;74.70;99312.18;1732128;81;20431;-69
2021/01/24 08:51:43;;;;;;;;;;;;;;;7.76;74.53;99326.50;1732238;83;20412;-70
2021/01/24 08:54:35;;;;;;;;;;;;;;;7.78;74.34;99316.68;1724000;81;22179;-69
2021/01/24 08:57:09;;;;;;;;;;;;;;;7.82;74.04;99320.73;1676954;84;21298;-70
2021/01/24 08:59:39;;;;;;;;;;;;;;;7.87;73.66;99326.91;1724149;83;20267;-70
2021/01/24 09:02:07;;;;;;;;;;;;;;;7.92;73.75;99320.79;1723913;83;20274;-70
2021/01/24 09:04:35;;;;;;;;;;;;;;;7.94;73.50;99330.20;1701402;83;20431;-70
2021/01/24 09:07:14;;;;;;;;;;;;;;;7.99;73.38;99326.69;1677110;84;21767;-70
2021/01/24 09:09:45;;;;;;;;;;;;;;;8.01;73.30;99329.20;1711532;83;21448;-68
2021/01/24 09:12:16;;;;;;;;;;;;;;;8.03;73.09;99341.25;1731831;83;20437;-69
2021/01/24 09:14:43;;;;;;;;;;;;;;;8.03;72.79;99338.63;1729574;83;20300;-69
2021/01/24 09:17:15;;;;;;;;;;;;;;;8.05;72.73;99342.44;1752756;82;20253;-69
2021/01/24 09:19:47;;;;;;;;;;;;;;;8.06;72.76;99340.63;1760932;81;22697;-71
2021/01/24 09:22:16;;;;;;;;;;;;;;;8.07;72.69;99331.78;1734462;81;20355;-70
2021/01/24 09:24:44;;;;;;;;;;;;;;;8.07;72.69;99325.20;1730615;81;20254;-71
2021/01/24 09:27:12;;;;;;;;;;;;;;;8.07;72.45;99321.26;1730655;83;20322;-71
2021/01/24 09:29:40;;;;;;;;;;;;;;;8.08;72.62;99322.92;1738037;81;20288;-72
2021/01/24 09:32:08;;;;;;;;;;;;;;;8.11;72.78;99324.00;1759348;81;21900;-71
2021/01/24 09:34:36;;;;;;;;;;;;;;;8.17;72.70;99318.19;1759389;81;21240;-70
2021/01/24 09:37:04;;;;;;;;;;;;;;;8.23;72.63;99324.25;1759250;81;20157;-70
2021/01/24 09:39:32;;;;;;;;;;;;;;;8.30;72.52;99310.44;1759894;81;21352;-71
2021/01/24 09:41:59;;;;;;;;;;;;;;;8.38;72.38;99316.84;1760909;81;20272;-71
2021/01/24 09:44:27;;;;;;;;;;;;;;;8.42;72.09;99302.47;1747767;80;22071;-71
2021/01/24 09:46:55;;;;;;;;;;;;;;;8.44;71.88;99303.98;1730869;82;20227;-69
2021/01/24 09:49:23;;;;;;;;;;;;;;;8.45;71.90;99303.50;1708032;83;20222;-68
2021/01/24 09:51:50;;;;;;;;;;;;;;;8.45;71.94;99290.34;1730813;80;21858;-68
2021/01/24 09:54:18;;;;;;;;;;;;;;;8.48;71.97;99287.44;1739660;81;20250;-68
2021/01/24 09:56:45;;;;;;;;;;;;;;;8.54;72.04;99282.95;1770683;81;22758;-67
2021/01/24 09:59:14;;;;;;;;;;;;;;;8.60;71.88;99279.31;1765263;81;20406;-67
2021/01/24 10:01:42;;;;;;;;;;;;;;;8.67;71.76;99289.27;1770415;81;20215;-68
2021/01/24 10:04:10;;;;;;;;;;;;;;;8.72;71.58;99281.81;1770646;81;20470;-68
2021/01/24 10:06:37;;;;;;;;;;;;;;;8.76;71.54;99275.30;1770690;81;20215;-68
2021/01/24 10:09:05;;;;;;;;;;;;;;;8.78;71.16;99272.90;1769466;81;22064;-67
2021/01/24 10:11:33;;;;;;;;;;;;;;;8.79;71.18;99265.83;1741068;81;20283;-67
2021/01/24 10:14:00;;;;;;;;;;;;;;;8.80;71.18;99263.54;1744791;81;20220;-67
2021/01/24 10:16:31;;;;;;;;;;;;;;;8.81;71.02;99250.72;1758555;81;21402;-68
2021/01/24 10:18:58;;;;;;;;;;;;;;;8.81;71.01;99248.09;1750013;81;20230;-66
2021/01/24 10:21:26;;;;;;;;;;;;;;;8.82;71.11;99245.31;1741658;81;21908;-66
2021/01/24 10:23:54;;;;;;;;;;;;;;;8.86;71.06;99245.86;1749619;79;20215;-67
2021/01/24 10:26:21;;;;;;;;;;;;;;;8.91;71.11;99244.97;1757686;81;20117;-69
2021/01/24 10:28:50;;;;;;;;;;;;;;;9.00;71.10;99245.45;1742788;81;20316;-69
2021/01/24 10:31:17;;;;;;;;;;;;;;;9.15;71.05;99238.77;1747476;81;20250;-69
2021/01/24 10:33:46;;;;;;;;;;;;;;;9.27;70.51;99236.84;1740542;81;21898;-68
2021/01/24 10:36:14;;;;;;;;;;;;;;;9.38;70.32;99249.02;1740367;81;20405;-68
2021/01/24 10:38:43;;;;;;;;;;;;;;;9.49;70.04;99242.75;1741211;81;20227;-70
2021/01/24 10:41:12;;;;;;;;;;;;;;;9.58;69.85;99236.63;1762152;81;20313;-68
2021/01/24 10:43:39;;;;;;;;;;;;;;;9.70;69.64;99229.70;1749970;81;20292;-68
2021/01/24 10:46:08;;;;;;;;;;;;;;;9.82;69.17;99230.84;1769106;81;21968;-68
2021/01/24 10:48:35;;;;;;;;;;;;;;;9.91;68.75;99233.93;1707811;84;20484;-70
2021/01/24 10:51:05;;;;;;;;;;;;;;;9.98;68.65;99225.78;1702563;84;20224;-68
2021/01/24 10:53:33;;;;;;;;;;;;;;;10.01;68.01;99220.20;1725866;82;20413;-68
2021/01/24 10:56:01;;;;;;;;;;;;;;;10.04;68.00;99224.72;1706667;84;20228;-69
2021/01/24 10:58:28;;;;;;;;;;;;;;;10.12;68.21;99224.45;1706697;84;22039;-69
2021/01/24 11:00:55;;;;;;;;;;;;;;;10.23;68.17;99219.00;1734991;82;20388;-68
2021/01/24 11:03:23;;;;;;;;;;;;;;;10.38;67.98;99216.70;1706620;84;20411;-70
2021/01/24 11:05:51;;;;;;;;;;;;;;;10.46;67.27;99214.16;1655978;85;20487;-67
2021/01/24 11:08:18;;;;;;;;;;;;;;;10.51;66.84;99215.84;1717209;82;20219;-70
2021/01/24 11:10:46;;;;;;;;;;;;;;;10.54;66.66;99216.89;1693101;84;21893;-71
2021/01/24 11:13:13;;;;;;;;;;;;;;;10.57;66.54;99210.80;1700786;83;20352;-71
2021/01/24 11:15:40;;;;;;;;;;;;;;;10.57;66.29;99205.52;1685933;83;20405;-69
2021/01/24 11:18:09;;;;;;;;;;;;;;;10.51;66.22;99209.24;1687085;84;20256;-71
2021/01/24 11:20:36;;;;;;;;;;;;;;;10.47;66.37;99200.80;1722181;82;20224;-73
2021/01/24 11:23:03;;;;;;;;;;;;;;;10.51;66.42;99200.00;1718883;82;24286;-73
2021/01/24 11:25:32;;;;;;;;;;;;;;;10.54;66.39;99208.47;1703469;82;20298;-72
2021/01/24 11:27:59;;;;;;;;;;;;;;;10.55;66.34;99205.34;1714223;82;20288;-73
2021/01/24 11:30:26;;;;;;;;;;;;;;;10.52;66.21;99214.89;1718531;82;20325;-72
2021/01/24 11:32:54;;;;;;;;;;;;;;;10.44;66.48;99210.84;1713697;82;20275;-72
2021/01/24 11:35:22;;;;;;;;;;;;;;;10.36;66.60;99213.39;1713825;82;22071;-71
2021/01/24 11:37:51;;;;;;;;;;;;;;;10.25;66.91;99211.80;1728830;82;20371;-72
2021/01/24 11:40:18;;;;;;;;;;;;;;;10.15;67.11;99200.44;1724580;82;20489;-71
2021/01/24 11:42:46;;;;;;;;;;;;;;;10.03;67.32;99194.02;1728093;82;20315;-71
2021/01/24 11:45:14;;;;;;;;;;;;;;;9.97;67.68;99189.84;1708012;82;20228;-71
2021/01/24 11:47:42;;;;;;;;;;;;;;;9.91;67.86;99191.23;1713973;82;22955;-71
2021/01/24 11:50:11;;;;;;;;;;;;;;;9.88;68.13;99195.98;1735272;82;21171;-71
2021/01/24 11:52:39;;;;;;;;;;;;;;;9.84;68.25;99186.69;1736179;82;20584;-72
2021/01/24 11:55:07;;;;;;;;;;;;;;;9.83;68.46;99182.39;1712540;82;20307;-72
2021/01/24 11:57:35;;;;;;;;;;;;;;;9.83;68.62;99177.95;1736263;82;20234;-74
2021/01/24 12:00:04;;;;;;;;;;;;;;;9.85;68.57;99182.61;1725092;81;22144;-75
2021/01/24 12:02:33;;;;;;;;;;;;;;;9.89;68.57;99175.23;1738344;82;20273;-71
2021/01/24 12:05:01;;;;;;;;;;;;;;;9.92;68.51;99184.98;1731236;82;20185;-71
2021/01/24 12:07:28;;;;;;;;;;;;;;;9.94;68.39;99179.55;1707697;84;20284;-72
2021/01/24 12:09:56;;;;;;;;;;;;;;;9.98;68.44;99177.81;1718659;81;20243;-69
2021/01/24 12:12:23;;;;;;;;;;;;;;;10.01;68.40;99176.19;1675939;84;22089;-68
2021/01/24 12:14:51;;;;;;;;;;;;;;;10.04;68.47;99183.00;1718237;82;20475;-70
2021/01/24 12:17:24;;;;;;;;;;;;;;;10.07;68.20;99180.06;1702999;83;20217;-68
2021/01/24 12:19:50;;;;;;;;;;;;;;;10.08;68.28;99186.99;1705581;83;20463;-70
2021/01/24 12:22:18;;;;;;;;;;;;;;;10.08;68.39;99194.08;1744228;81;20239;-70
2021/01/24 12:24:46;;;;;;;;;;;;;;;10.11;68.28;99175.30;1742362;81;22082;-68
2021/01/24 12:27:13;;;;;;;;;;;;;;;10.12;68.27;99180.43;1748970;81;20266;-72
2021/01/24 12:29:41;;;;;;;;;;;;;;;10.09;68.27;99187.33;1768944;81;20223;-71
2021/01/24 12:32:11;;;;;;;;;;;;;;;10.08;68.35;99194.91;1756965;80;20317;-68
2021/01/24 12:34:40;;;;;;;;;;;;;;;10.00;68.30;99182.45;1739105;81;20273;-70
2021/01/24 12:37:07;;;;;;;;;;;;;;;9.94;68.61;99205.94;1738451;82;22085;-69
2021/01/24 12:39:35;;;;;;;;;;;;;;;9.85;68.74;99216.89;1738419;82;20303;-69
2021/01/24 12:42:03;;;;;;;;;;;;;;;9.79;68.79;99216.64;1748872;81;20525;-69
2021/01/24 12:44:31;;;;;;;;;;;;;;;9.73;69.09;99203.04;1764970;81;20525;-69
2021/01/24 12:46:59;;;;;;;;;;;;;;;9.70;69.37;99192.80;1727722;81;20273;-68
2021/01/24 12:49:27;;;;;;;;;;;;;;;9.69;69.52;99204.31;1762099;81;22316;-68
2021/01/24 12:51:55;;;;;;;;;;;;;;;9.72;69.69;99206.66;1757112;81;21886;-69
2021/01/24 12:54:22;;;;;;;;;;;;;;;9.77;69.59;99202.77;1699535;83;20236;-70
2021/01/24 12:56:50;;;;;;;;;;;;;;;9.80;69.46;99203.79;1691713;84;20489;-73
2021/01/24 12:59:20;;;;;;;;;;;;;;;9.80;69.47;99207.26;1717393;83;20270;-72
2021/01/24 13:01:47;;;;;;;;;;;;;;;9.79;69.40;99202.96;1715557;83;21976;-70
2021/01/24 13:04:16;;;;;;;;;;;;;;;9.79;69.49;99203.45;1685823;83;20418;-70
2021/01/24 13:06:44;;;;;;;;;;;;;;;9.80;69.46;99198.52;1715143;83;20274;-72